< < Back
Terminal Aerodrome Forecast


Current Version              Previous Versions:   1  2  3  4  5  6  7  8  9  

Terminal Aerodrome Forecast

486
FTUS42 KTAE 191100
TAFTLH
TAF
KTLH 191120Z 1912/2012 05004KT P6SM SCT150 OVC250
     FM191500 06005KT P6SM SCT050 BKN100 PROB30 1922/2002 5SM SHRA
      BKN040 OVC080
     FM200400 07004KT P6SM SCT100 BKN250
     FM200900 05003KT P6SM SCT250=



Latest METAR

665
SAUS80 KWBC 191100 RRA
MTRTLH
METAR KTLH 191053Z 05004KT 10SM SCT250 23/21 A2995 RMK AO2 SLP141
T02280206


USA.gov is the U.S. government's official web portal to all federal, state and local government web resources and services.